CCSBE SCPC-SCVI
Flight info
| Callsign | CCSBE |
|---|---|
| Flight time | 0h 18m |
| Altitude | 8000 |
| Route | LAGO VILLARRICA |
| Aircraft | DA42/L-SBDGRY/S |
Departure
| Time | 2026-04-26 15:05 |
|---|---|
| Airport | Pucón Airport (SCPC) |
Arrival
| Time | 2026-04-26 15:23 |
|---|---|
| Airport | Villarrica Airport (SCVI) |
| Time | Latitude | Longitude | Altitude | Speed | Heading |
|---|---|---|---|---|---|
| 2026-04-26 14:55 | -39.28940 | -71.92528 | 917 ft | 0 kts | 192° |
| 2026-04-26 15:01 | -39.28945 | -71.92525 | 920 ft | 3 kts | 136° |
| 2026-04-26 15:02 | -39.28955 | -71.92481 | 919 ft | 10 kts | 102° |
| 2026-04-26 15:02 | -39.28972 | -71.92366 | 919 ft | 15 kts | 107° |
| 2026-04-26 15:02 | -39.29021 | -71.92330 | 913 ft | 9 kts | 102° |
| 2026-04-26 15:02 | -39.29038 | -71.92240 | 911 ft | 11 kts | 103° |
| 2026-04-26 15:03 | -39.29089 | -71.92188 | 912 ft | 13 kts | 200° |
| 2026-04-26 15:03 | -39.29133 | -71.92252 | 911 ft | 6 kts | 284° |
| 2026-04-26 15:03 | -39.29116 | -71.92337 | 917 ft | 16 kts | 284° |
| 2026-04-26 15:03 | -39.29075 | -71.92495 | 920 ft | 19 kts | 316° |
| 2026-04-26 15:04 | -39.29072 | -71.92549 | 920 ft | 12 kts | 98° |
| 2026-04-26 15:04 | -39.29075 | -71.92530 | 921 ft | 0 kts | 99° |
| 2026-04-26 15:04 | -39.29106 | -71.92334 | 915 ft | 49 kts | 102° |
| 2026-04-26 15:04 | -39.29210 | -71.91704 | 964 ft | 86 kts | 102° |
| 2026-04-26 15:05 | -39.29336 | -71.90985 | 1279 ft | 82 kts | 104° |
| 2026-04-26 15:05 | -39.29426 | -71.90503 | 1485 ft | 82 kts | 103° |
| 2026-04-26 15:05 | -39.29611 | -71.89474 | 1681 ft | 106 kts | 103° |
| 2026-04-26 15:05 | -39.29790 | -71.88429 | 1686 ft | 128 kts | 102° |
| 2026-04-26 15:06 | -39.29979 | -71.87304 | 1838 ft | 126 kts | 102° |
| 2026-04-26 15:06 | -39.30162 | -71.86227 | 2090 ft | 119 kts | 102° |
| 2026-04-26 15:06 | -39.30339 | -71.85200 | 2322 ft | 116 kts | 102° |
| 2026-04-26 15:06 | -39.30519 | -71.84178 | 2530 ft | 117 kts | 102° |
| 2026-04-26 15:07 | -39.29915 | -71.83744 | 2896 ft | 120 kts | 291° |
| 2026-04-26 15:07 | -39.29636 | -71.84771 | 3096 ft | 121 kts | 285° |
| 2026-04-26 15:07 | -39.29453 | -71.85828 | 3373 ft | 120 kts | 282° |
| 2026-04-26 15:08 | -39.29282 | -71.86877 | 3659 ft | 119 kts | 282° |
| 2026-04-26 15:08 | -39.29113 | -71.87912 | 3873 ft | 120 kts | 282° |
| 2026-04-26 15:08 | -39.28935 | -71.88977 | 4090 ft | 122 kts | 282° |
| 2026-04-26 15:08 | -39.28756 | -71.90055 | 4322 ft | 123 kts | 282° |
| 2026-04-26 15:09 | -39.28574 | -71.91140 | 4582 ft | 124 kts | 282° |
| 2026-04-26 15:09 | -39.28386 | -71.92274 | 4648 ft | 134 kts | 282° |
| 2026-04-26 15:09 | -39.28194 | -71.93437 | 4898 ft | 129 kts | 282° |
| 2026-04-26 15:09 | -39.28003 | -71.94544 | 5207 ft | 125 kts | 282° |
| 2026-04-26 15:10 | -39.27797 | -71.95695 | 5235 ft | 140 kts | 282° |
| 2026-04-26 15:10 | -39.27643 | -71.96529 | 5251 ft | 145 kts | 282° |
| 2026-04-26 15:10 | -39.27339 | -71.98159 | 5589 ft | 135 kts | 282° |
| 2026-04-26 15:10 | -39.27114 | -71.99352 | 5578 ft | 149 kts | 279° |
| 2026-04-26 15:11 | -39.26868 | -72.00737 | 5336 ft | 161 kts | 282° |
| 2026-04-26 15:11 | -39.26633 | -72.01990 | 5528 ft | 130 kts | 281° |
| 2026-04-26 15:11 | -39.26403 | -72.03174 | 5510 ft | 140 kts | 281° |
| 2026-04-26 15:11 | -39.26163 | -72.04390 | 5571 ft | 138 kts | 281° |
| 2026-04-26 15:12 | -39.25924 | -72.05563 | 5715 ft | 132 kts | 281° |
| 2026-04-26 15:12 | -39.25682 | -72.06691 | 5866 ft | 129 kts | 281° |
| 2026-04-26 15:12 | -39.25433 | -72.07803 | 5998 ft | 129 kts | 281° |
| 2026-04-26 15:12 | -39.25171 | -72.08999 | 5871 ft | 144 kts | 281° |
| 2026-04-26 15:13 | -39.24900 | -72.10254 | 5783 ft | 150 kts | 281° |
| 2026-04-26 15:13 | -39.24635 | -72.11485 | 5540 ft | 137 kts | 282° |
| 2026-04-26 15:13 | -39.24399 | -72.12591 | 5411 ft | 117 kts | 281° |
| 2026-04-26 15:13 | -39.24184 | -72.13619 | 5109 ft | 117 kts | 282° |
| 2026-04-26 15:14 | -39.23981 | -72.14634 | 4817 ft | 115 kts | 279° |
| 2026-04-26 15:14 | -39.23844 | -72.15634 | 4574 ft | 110 kts | 270° |
| 2026-04-26 15:14 | -39.23909 | -72.16610 | 4267 ft | 112 kts | 257° |
| 2026-04-26 15:14 | -39.24101 | -72.17573 | 3974 ft | 109 kts | 233° |
| 2026-04-26 15:15 | -39.24561 | -72.18307 | 3695 ft | 108 kts | 228° |
| 2026-04-26 15:15 | -39.25029 | -72.19041 | 3478 ft | 102 kts | 226° |
| 2026-04-26 15:15 | -39.25505 | -72.19741 | 3313 ft | 105 kts | 226° |
| 2026-04-26 15:15 | -39.25841 | -72.20577 | 3131 ft | 103 kts | 242° |
| 2026-04-26 15:16 | -39.26172 | -72.21403 | 2848 ft | 109 kts | 236° |
| 2026-04-26 15:16 | -39.26661 | -72.22102 | 2730 ft | 101 kts | 212° |
| 2026-04-26 15:16 | -39.27265 | -72.22596 | 2525 ft | 105 kts | 208° |
| 2026-04-26 15:16 | -39.27904 | -72.23049 | 2305 ft | 103 kts | 207° |
| 2026-04-26 15:17 | -39.28530 | -72.23442 | 2125 ft | 97 kts | 188° |
| 2026-04-26 15:17 | -39.28976 | -72.23538 | 1990 ft | 98 kts | 181° |
| 2026-04-26 15:17 | -39.29892 | -72.23589 | 1645 ft | 104 kts | 170° |
| 2026-04-26 15:17 | -39.30638 | -72.23435 | 1288 ft | 108 kts | 159° |
| 2026-04-26 15:18 | -39.31317 | -72.23043 | 967 ft | 109 kts | 158° |
| 2026-04-26 15:18 | -39.31940 | -72.22728 | 993 ft | 89 kts | 163° |
| 2026-04-26 15:18 | -39.32467 | -72.22501 | 1100 ft | 73 kts | 163° |
| 2026-04-26 15:18 | -39.32937 | -72.22299 | 1245 ft | 69 kts | 164° |
| 2026-04-26 15:19 | -39.33379 | -72.22134 | 1512 ft | 66 kts | 149° |
| 2026-04-26 15:19 | -39.33647 | -72.21577 | 1691 ft | 81 kts | 121° |
| 2026-04-26 15:19 | -39.33876 | -72.20875 | 1752 ft | 86 kts | 97° |
| 2026-04-26 15:19 | -39.33476 | -72.20303 | 1630 ft | 105 kts | 20° |
| 2026-04-26 15:20 | -39.32803 | -72.20064 | 1585 ft | 94 kts | 15° |
| 2026-04-26 15:20 | -39.32186 | -72.19852 | 1463 ft | 91 kts | 14° |
| 2026-04-26 15:20 | -39.31630 | -72.19695 | 1473 ft | 72 kts | 5° |
| 2026-04-26 15:20 | -39.31145 | -72.19803 | 1449 ft | 72 kts | 341° |
| 2026-04-26 15:21 | -39.30629 | -72.19975 | 1446 ft | 81 kts | 345° |
| 2026-04-26 15:21 | -39.30087 | -72.20132 | 1369 ft | 77 kts | 347° |
| 2026-04-26 15:21 | -39.29577 | -72.20326 | 1336 ft | 81 kts | 332° |
| 2026-04-26 15:21 | -39.29103 | -72.20831 | 1222 ft | 96 kts | 296° |
| 2026-04-26 15:22 | -39.29078 | -72.21742 | 1065 ft | 103 kts | 250° |
| 2026-04-26 15:22 | -39.29373 | -72.22446 | 1109 ft | 80 kts | 237° |
| 2026-04-26 15:22 | -39.29707 | -72.23077 | 1230 ft | 75 kts | 215° |
| 2026-04-26 15:22 | -39.30247 | -72.23197 | 1159 ft | 89 kts | 179° |
| 2026-04-26 15:23 | -39.30821 | -72.23174 | 1101 ft | 83 kts | 175° |
| 2026-04-26 15:23 | -39.31401 | -72.23005 | 973 ft | 86 kts | 159° |
| 2026-04-26 15:23 | -39.31895 | -72.22750 | 961 ft | 52 kts | 158° |
| 2026-04-26 15:23 | -39.32042 | -72.22679 | 961 ft | 12 kts | 112° |
| 2026-04-26 15:24 | -39.32058 | -72.22666 | 962 ft | 8 kts | 309° |
| 2026-04-26 15:24 | -39.31951 | -72.22720 | 961 ft | 24 kts | 337° |
| 2026-04-26 15:24 | -39.31791 | -72.22802 | 962 ft | 25 kts | 339° |
| 2026-04-26 15:24 | -39.31613 | -72.22889 | 964 ft | 34 kts | 333° |
| 2026-04-26 15:25 | -39.31463 | -72.22974 | 964 ft | 8 kts | 339° |
| 2026-04-26 15:25 | -39.31420 | -72.22994 | 963 ft | 11 kts | 340° |
| 2026-04-26 15:25 | -39.31307 | -72.23049 | 963 ft | 14 kts | 339° |
| 2026-04-26 15:25 | -39.31266 | -72.23051 | 961 ft | 4 kts | 8° |
| 2026-04-26 15:26 | -39.31265 | -72.23050 | 961 ft | 2 kts | 12° |
| 2026-04-26 15:26 | -39.31220 | -72.23022 | 961 ft | 7 kts | 46° |
| 2026-04-26 15:26 | -39.31204 | -72.23031 | 961 ft | 1 kts | 209° |
| 2026-04-26 15:26 | -39.31215 | -72.23039 | 962 ft | 0 kts | 209° |